createdAt,value
2023-05-14T00:02:23.685Z,13.8
2023-05-14T00:05:23.638Z,13.8
2023-05-14T00:08:23.643Z,13.8
2023-05-14T00:11:23.644Z,13.8
2023-05-14T00:14:23.722Z,13.8
2023-05-14T00:17:23.686Z,13.8
2023-05-14T00:20:23.854Z,13.8
2023-05-14T00:23:23.666Z,13.8
2023-05-14T00:26:23.679Z,13.8
2023-05-14T00:29:23.710Z,13.8
2023-05-14T00:32:23.702Z,13.7
2023-05-14T00:35:23.683Z,13.7
2023-05-14T00:38:23.684Z,13.7
2023-05-14T00:41:23.691Z,13.7
2023-05-14T00:44:23.747Z,13.7
2023-05-14T00:47:23.718Z,13.7
2023-05-14T00:50:24.002Z,13.7
2023-05-14T00:53:23.708Z,13.7
2023-05-14T00:56:23.710Z,13.7
2023-05-14T00:59:23.730Z,13.7
2023-05-14T01:02:23.752Z,13.7
2023-05-14T01:05:23.720Z,13.7
2023-05-14T01:08:23.731Z,13.7
2023-05-14T01:11:23.741Z,13.7
2023-05-14T01:14:23.769Z,13.6
2023-05-14T01:17:23.751Z,13.6
2023-05-14T01:20:23.934Z,13.6
2023-05-14T01:23:23.761Z,13.6
2023-05-14T01:26:23.770Z,13.6
2023-05-14T01:29:23.802Z,13.6
2023-05-14T01:32:23.781Z,13.6
2023-05-14T01:35:23.761Z,13.6
2023-05-14T01:38:23.783Z,13.6
2023-05-14T01:41:23.770Z,13.6
2023-05-14T01:44:23.800Z,13.6
2023-05-14T01:47:23.828Z,13.6
2023-05-14T01:50:23.930Z,13.6
2023-05-14T01:53:23.779Z,13.6
2023-05-14T01:56:23.794Z,13.6
2023-05-14T01:59:23.800Z,13.6
2023-05-14T02:02:23.814Z,13.6
2023-05-14T02:05:23.796Z,13.6
2023-05-14T02:08:23.806Z,13.6
2023-05-14T02:11:23.807Z,13.6
2023-05-14T02:14:23.832Z,13.6
2023-05-14T02:17:23.856Z,13.6
2023-05-14T02:20:23.925Z,13.6
2023-05-14T02:23:31.268Z,13.6
2023-05-14T02:26:23.826Z,13.6
2023-05-14T02:29:23.834Z,13.6
2023-05-14T02:32:23.884Z,13.5
2023-05-14T02:35:23.847Z,13.5
2023-05-14T02:38:23.836Z,13.5
2023-05-14T02:41:23.847Z,13.5
2023-05-14T02:44:23.901Z,13.5
2023-05-14T02:47:23.869Z,13.5
2023-05-14T02:50:24.047Z,13.5
2023-05-14T02:53:23.855Z,13.5
2023-05-14T02:56:23.872Z,13.5
2023-05-14T02:59:23.865Z,13.5
2023-05-14T03:02:23.940Z,13.5
2023-05-14T03:05:23.873Z,13.5
2023-05-14T03:08:23.899Z,13.4
2023-05-14T03:11:23.882Z,13.4
2023-05-14T03:14:23.894Z,13.4
2023-05-14T03:17:23.907Z,13.4
2023-05-14T03:20:24.044Z,13.4
2023-05-14T03:23:23.887Z,13.4
2023-05-14T03:26:23.882Z,13.4
2023-05-14T03:29:23.889Z,13.4
2023-05-14T03:32:23.897Z,13.4
2023-05-14T03:35:23.939Z,13.4
2023-05-14T03:38:23.930Z,13.4
2023-05-14T03:41:23.943Z,13.4
2023-05-14T03:44:23.977Z,13.4
2023-05-14T03:47:24.006Z,13.4
2023-05-14T03:50:24.103Z,13.4
2023-05-14T03:53:23.974Z,13.4
2023-05-14T03:56:23.992Z,13.4
2023-05-14T03:59:23.994Z,13.4
2023-05-14T04:02:24.015Z,13.4
2023-05-14T04:05:24.002Z,13.4
2023-05-14T04:08:24.016Z,13.4
2023-05-14T04:11:24.005Z,13.3
2023-05-14T04:14:24.025Z,13.4
2023-05-14T04:17:24.095Z,13.3
2023-05-14T04:20:24.118Z,13.3
2023-05-14T04:23:24.028Z,13.3
2023-05-14T04:26:24.023Z,13.3
2023-05-14T04:29:24.038Z,13.3
2023-05-14T04:32:24.066Z,13.3
2023-05-14T04:35:25.094Z,13.3
2023-05-14T04:38:24.054Z,13.3
2023-05-14T04:41:24.043Z,13.3
2023-05-14T04:44:24.083Z,13.3
2023-05-14T04:47:24.090Z,13.3
2023-05-14T04:50:24.184Z,13.3
2023-05-14T04:53:24.071Z,13.3
2023-05-14T04:56:24.098Z,13.3
2023-05-14T04:59:24.096Z,13.3
2023-05-14T05:02:24.094Z,13.3
2023-05-14T05:05:24.095Z,13.3
2023-05-14T05:08:24.141Z,13.3
2023-05-14T05:11:24.102Z,13.3
2023-05-14T05:14:24.127Z,13.3
2023-05-14T05:17:24.121Z,13.3
2023-05-14T05:20:24.289Z,13.2
2023-05-14T05:23:24.128Z,13.2
2023-05-14T05:26:24.123Z,13.3
2023-05-14T05:29:24.136Z,13.2
2023-05-14T05:32:24.133Z,13.2
2023-05-14T05:35:24.133Z,13.2
2023-05-14T05:38:24.165Z,13.2
2023-05-14T05:41:24.136Z,13.2
2023-05-14T05:44:24.169Z,13.2
2023-05-14T05:47:24.161Z,13.2
2023-05-14T05:50:24.282Z,13.1
2023-05-14T05:53:24.148Z,13.1
2023-05-14T05:56:24.152Z,13.1
2023-05-14T05:59:24.174Z,13.1
2023-05-14T06:02:24.250Z,13.1
2023-05-14T06:05:24.241Z,13.1
2023-05-14T06:08:24.180Z,13.1
2023-05-14T06:11:24.181Z,13.1
2023-05-14T06:14:24.192Z,13.1
2023-05-14T06:17:24.199Z,13.1
2023-05-14T06:20:24.365Z,13.1
2023-05-14T06:23:24.249Z,13.1
2023-05-14T06:26:24.213Z,13.1
2023-05-14T06:29:24.216Z,13.1
2023-05-14T06:32:24.370Z,13.1
2023-05-14T06:35:24.215Z,13.1
2023-05-14T06:38:24.227Z,13.1
2023-05-14T06:41:24.230Z,13.1
2023-05-14T06:44:24.255Z,13.1
2023-05-14T06:47:24.276Z,13.1
2023-05-14T06:50:24.409Z,13.1
2023-05-14T06:53:24.248Z,13.1
2023-05-14T06:56:24.257Z,13.1
2023-05-14T06:59:24.264Z,13.1
2023-05-14T07:02:24.277Z,13.1
2023-05-14T07:05:24.267Z,13.1
2023-05-14T07:08:24.278Z,13.1
2023-05-14T07:11:24.281Z,13.1
2023-05-14T07:14:24.300Z,13
2023-05-14T07:17:24.353Z,13
2023-05-14T07:20:24.588Z,13
2023-05-14T07:23:24.288Z,13
2023-05-14T07:26:24.298Z,13
2023-05-14T07:29:24.313Z,13
2023-05-14T07:32:24.332Z,13
2023-05-14T07:35:24.313Z,13
2023-05-14T07:38:24.324Z,13
2023-05-14T07:41:24.332Z,13
2023-05-14T07:44:24.366Z,13
2023-05-14T07:47:24.366Z,13
2023-05-14T07:50:24.489Z,12.9
2023-05-14T07:53:24.342Z,13
2023-05-14T07:56:24.360Z,13
2023-05-14T07:59:24.382Z,13
2023-05-14T08:02:24.415Z,13
2023-05-14T08:05:24.351Z,13
2023-05-14T08:08:24.379Z,13
2023-05-14T08:11:24.380Z,12.9
2023-05-14T08:14:24.398Z,12.9
2023-05-14T08:17:24.406Z,13
2023-05-14T08:20:24.560Z,12.9
2023-05-14T08:23:24.390Z,12.9
2023-05-14T08:26:24.424Z,12.9
2023-05-14T08:29:24.414Z,12.9
2023-05-14T08:32:24.465Z,12.9
2023-05-14T08:35:24.404Z,12.9
2023-05-14T08:38:24.428Z,12.9
2023-05-14T08:41:24.421Z,12.9
2023-05-14T08:44:24.435Z,12.9
2023-05-14T08:47:24.455Z,12.9
2023-05-14T08:50:24.586Z,12.9
2023-05-14T08:53:24.424Z,12.9
2023-05-14T08:56:24.422Z,12.9
2023-05-14T08:59:24.451Z,12.9
2023-05-14T09:02:24.532Z,12.9
2023-05-14T09:05:24.437Z,12.9
2023-05-14T09:08:24.449Z,12.9
2023-05-14T09:11:24.447Z,12.9
2023-05-14T09:14:24.474Z,12.9
2023-05-14T09:17:24.490Z,12.9
2023-05-14T09:20:24.773Z,12.9
2023-05-14T09:23:24.467Z,12.9
2023-05-14T09:26:24.496Z,12.9
2023-05-14T09:29:24.487Z,12.9
2023-05-14T09:32:24.602Z,12.9
2023-05-14T09:35:24.479Z,12.9
2023-05-14T09:38:24.493Z,12.9
2023-05-14T09:41:24.523Z,12.9
2023-05-14T09:44:24.517Z,12.9
2023-05-14T09:47:24.524Z,12.9
2023-05-14T09:50:24.614Z,12.9
2023-05-14T09:53:24.507Z,12.9
2023-05-14T09:56:24.518Z,12.9
2023-05-14T09:59:24.544Z,12.9
2023-05-14T10:02:24.578Z,12.9
2023-05-14T10:05:24.524Z,12.9
2023-05-14T10:08:24.534Z,12.9
2023-05-14T10:11:24.534Z,12.9
2023-05-14T10:14:24.556Z,12.9
2023-05-14T10:17:24.540Z,12.9
2023-05-14T10:20:24.890Z,13
2023-05-14T10:23:24.539Z,13
2023-05-14T10:26:24.542Z,13
2023-05-14T10:29:24.572Z,13
2023-05-14T10:32:24.586Z,13
2023-05-14T10:35:24.564Z,13
2023-05-14T10:38:24.567Z,13
2023-05-14T10:41:24.599Z,13
2023-05-14T10:44:24.586Z,13
2023-05-14T10:47:24.590Z,13
2023-05-14T10:50:24.901Z,13
2023-05-14T10:53:24.595Z,13
2023-05-14T10:56:24.589Z,13
2023-05-14T10:59:24.609Z,13
2023-05-14T11:02:24.618Z,13
2023-05-14T11:05:24.617Z,13
2023-05-14T11:08:26.541Z,13
2023-05-14T11:11:24.652Z,13
2023-05-14T11:14:24.640Z,13
2023-05-14T11:17:24.695Z,13.1
2023-05-14T11:20:24.932Z,13.1
2023-05-14T11:23:24.673Z,13.1
2023-05-14T11:26:24.760Z,13.1
2023-05-14T11:29:24.663Z,13.1
2023-05-14T11:32:24.688Z,13.1
2023-05-14T11:35:24.657Z,13.1
2023-05-14T11:38:24.666Z,13.1
2023-05-14T11:41:24.677Z,13.1
2023-05-14T11:44:24.716Z,13.1
2023-05-14T11:47:24.676Z,13.1
2023-05-14T11:50:24.920Z,13.1
2023-05-14T11:53:24.695Z,13.1
2023-05-14T11:56:24.693Z,13.1
2023-05-14T11:59:24.704Z,13.1
2023-05-14T12:02:24.747Z,13.1
2023-05-14T12:05:24.705Z,13.1
2023-05-14T12:08:24.705Z,13.1
2023-05-14T12:11:24.711Z,13.2
2023-05-14T12:14:24.731Z,13.2
2023-05-14T12:17:24.739Z,13.2
2023-05-14T12:20:24.916Z,13.2
2023-05-14T12:23:24.727Z,13.2
2023-05-14T12:26:24.736Z,13.2
2023-05-14T12:29:24.754Z,13.2
2023-05-14T12:32:24.763Z,13.2
2023-05-14T12:35:24.861Z,13.3
2023-05-14T12:38:24.757Z,13.3
2023-05-14T12:41:24.765Z,13.3
2023-05-14T12:44:24.786Z,13.3
2023-05-14T12:47:24.832Z,13.3
2023-05-14T12:50:24.958Z,13.3
2023-05-14T12:53:24.784Z,13.3
2023-05-14T12:56:24.793Z,13.3
2023-05-14T12:59:24.813Z,13.3
2023-05-14T13:02:24.805Z,13.3
2023-05-14T13:05:24.951Z,13.3
2023-05-14T13:08:24.812Z,13.3
2023-05-14T13:11:24.809Z,13.3
2023-05-14T13:14:24.817Z,13.4
2023-05-14T13:17:24.815Z,13.4
2023-05-14T13:20:24.828Z,13.4
2023-05-14T13:23:24.821Z,13.4
2023-05-14T13:26:24.819Z,13.4
2023-05-14T13:29:24.833Z,13.4
2023-05-14T13:32:24.841Z,13.4
2023-05-14T13:35:25.030Z,13.4
2023-05-14T13:38:24.837Z,13.4
2023-05-14T13:41:24.845Z,13.4
2023-05-14T13:44:24.898Z,13.4
2023-05-14T13:47:24.877Z,13.4
2023-05-14T13:50:24.856Z,13.4
2023-05-14T13:53:24.867Z,13.4
2023-05-14T13:56:24.874Z,13.5
2023-05-14T13:59:24.894Z,13.4
2023-05-14T14:02:24.893Z,13.5
2023-05-14T14:05:25.046Z,13.5
2023-05-14T14:08:24.935Z,13.5
2023-05-14T14:11:24.900Z,13.5
2023-05-14T14:14:24.943Z,13.5
2023-05-14T14:17:24.944Z,13.5
2023-05-14T14:20:24.921Z,13.5
2023-05-14T14:23:24.915Z,13.6
2023-05-14T14:26:24.921Z,13.6
2023-05-14T14:29:24.928Z,13.6
2023-05-14T14:32:24.949Z,13.6
2023-05-14T14:35:25.037Z,13.6
2023-05-14T14:38:24.931Z,13.6
2023-05-14T14:41:24.949Z,13.6
2023-05-14T14:44:24.987Z,13.6
2023-05-14T14:47:24.975Z,13.6
2023-05-14T14:50:24.957Z,13.6
2023-05-14T14:53:24.959Z,13.6
2023-05-14T14:56:24.976Z,13.6
2023-05-14T14:59:24.992Z,13.6
2023-05-14T15:02:24.997Z,13.6
2023-05-14T15:05:25.137Z,13.6
2023-05-14T15:08:24.999Z,13.6
2023-05-14T15:11:24.983Z,13.6
2023-05-14T15:14:25.009Z,13.7
2023-05-14T15:17:24.999Z,13.7
2023-05-14T15:20:24.996Z,13.7
2023-05-14T15:23:24.993Z,13.7
2023-05-14T15:26:25.001Z,13.7
2023-05-14T15:29:25.029Z,13.7
2023-05-14T15:32:25.043Z,13.7
2023-05-14T15:35:25.242Z,13.7
2023-05-14T15:38:25.030Z,13.7
2023-05-14T15:41:25.021Z,13.7
2023-05-14T15:44:25.043Z,13.8
2023-05-14T15:47:25.023Z,13.8
2023-05-14T15:50:25.142Z,13.8
2023-05-14T15:53:25.047Z,13.8
2023-05-14T15:56:25.050Z,13.8
2023-05-14T15:59:25.076Z,13.8
2023-05-14T16:02:25.059Z,13.8
2023-05-14T16:05:25.058Z,13.8
2023-05-14T16:08:25.050Z,13.8
2023-05-14T16:11:25.058Z,13.8
2023-05-14T16:14:25.076Z,13.8
2023-05-14T16:17:25.079Z,13.8
2023-05-14T16:20:25.199Z,13.8
2023-05-14T16:23:25.073Z,13.8
2023-05-14T16:26:25.093Z,13.8
2023-05-14T16:29:25.094Z,13.8
2023-05-14T16:32:25.116Z,13.8
2023-05-14T16:35:25.095Z,13.8
2023-05-14T16:38:25.099Z,13.8
2023-05-14T16:41:25.103Z,13.8
2023-05-14T16:44:25.112Z,13.8
2023-05-14T16:47:25.107Z,13.8
2023-05-14T16:50:25.092Z,13.8
2023-05-14T16:53:25.099Z,13.9
2023-05-14T16:56:25.101Z,13.9
2023-05-14T16:59:25.134Z,13.9
2023-05-14T17:02:25.117Z,13.9
2023-05-14T17:05:25.275Z,13.9
2023-05-14T17:08:25.140Z,13.9
2023-05-14T17:11:25.116Z,13.9
2023-05-14T17:14:25.131Z,13.9
2023-05-14T17:17:25.140Z,13.9
2023-05-14T17:20:25.131Z,13.9
2023-05-14T17:23:25.138Z,13.9
2023-05-14T17:26:25.138Z,13.9
2023-05-14T17:29:25.160Z,13.9
2023-05-14T17:32:25.229Z,13.9
2023-05-14T17:35:25.246Z,13.9
2023-05-14T17:38:25.151Z,13.9
2023-05-14T17:41:25.157Z,13.9
2023-05-14T17:44:25.192Z,13.9
2023-05-14T17:47:25.160Z,13.9
2023-05-14T17:50:25.181Z,13.9
2023-05-14T17:53:25.190Z,13.9
2023-05-14T17:56:25.194Z,13.9
2023-05-14T17:59:25.188Z,13.9
2023-05-14T18:02:25.228Z,13.9
2023-05-14T18:05:25.407Z,13.9
2023-05-14T18:08:25.194Z,13.9
2023-05-14T18:11:25.199Z,13.9
2023-05-14T18:14:25.215Z,13.9
2023-05-14T18:17:25.285Z,13.9
2023-05-14T18:20:25.243Z,13.9
2023-05-14T18:23:25.276Z,13.9
2023-05-14T18:26:25.277Z,13.9
2023-05-14T18:29:25.305Z,13.9
2023-05-14T18:32:25.310Z,13.9
2023-05-14T18:35:25.424Z,13.9
2023-05-14T18:38:25.323Z,14
2023-05-14T18:41:25.321Z,13.9
2023-05-14T18:44:25.343Z,13.9
2023-05-14T18:47:25.430Z,14
2023-05-14T18:50:25.333Z,14
2023-05-14T18:53:25.340Z,14
2023-05-14T18:56:25.337Z,14
2023-05-14T18:59:25.352Z,14
2023-05-14T19:02:25.410Z,14
2023-05-14T19:05:25.449Z,14
2023-05-14T19:08:25.362Z,14
2023-05-14T19:11:25.401Z,14
2023-05-14T19:14:25.373Z,14
2023-05-14T19:17:25.388Z,14
2023-05-14T19:20:25.369Z,14
2023-05-14T19:23:25.377Z,14
2023-05-14T19:26:25.380Z,14
2023-05-14T19:29:25.392Z,14
2023-05-14T19:32:25.410Z,14
2023-05-14T19:35:25.531Z,14
2023-05-14T19:38:25.390Z,14
2023-05-14T19:41:25.398Z,14
2023-05-14T19:44:25.421Z,14
2023-05-14T19:47:25.444Z,14
2023-05-14T19:50:25.412Z,14
2023-05-14T19:53:25.424Z,14
2023-05-14T19:56:27.086Z,14
2023-05-14T19:59:25.426Z,14
2023-05-14T20:02:25.487Z,14
2023-05-14T20:05:25.418Z,14
2023-05-14T20:08:25.427Z,14
2023-05-14T20:11:25.430Z,14
2023-05-14T20:14:25.435Z,14
2023-05-14T20:17:25.468Z,14
2023-05-14T20:20:25.595Z,14
2023-05-14T20:23:25.437Z,14
2023-05-14T20:26:25.448Z,14
2023-05-14T20:29:25.446Z,14
2023-05-14T20:32:25.458Z,14
2023-05-14T20:35:25.561Z,14
2023-05-14T20:38:25.448Z,14
2023-05-14T20:41:25.448Z,14
2023-05-14T20:44:25.473Z,14
2023-05-14T20:47:25.483Z,14
2023-05-14T20:50:25.444Z,14
2023-05-14T20:53:25.463Z,14
2023-05-14T20:56:25.456Z,14
2023-05-14T20:59:25.477Z,14
2023-05-14T21:02:25.514Z,14
2023-05-14T21:05:25.623Z,14
2023-05-14T21:08:25.485Z,14
2023-05-14T21:11:25.464Z,14
2023-05-14T21:14:25.480Z,14
2023-05-14T21:17:25.475Z,14
2023-05-14T21:20:25.469Z,14
2023-05-14T21:23:25.462Z,14
2023-05-14T21:26:25.470Z,14
2023-05-14T21:29:25.489Z,14
2023-05-14T21:32:25.487Z,14
2023-05-14T21:35:25.639Z,14
2023-05-14T21:38:25.472Z,14
2023-05-14T21:41:25.476Z,14
2023-05-14T21:44:25.529Z,14
2023-05-14T21:47:25.572Z,14
2023-05-14T21:50:25.482Z,14
2023-05-14T21:53:25.530Z,14
2023-05-14T21:56:25.503Z,14
2023-05-14T21:59:25.497Z,14
2023-05-14T22:02:25.518Z,14
2023-05-14T22:05:25.643Z,14
2023-05-14T22:08:25.486Z,14
2023-05-14T22:11:25.490Z,14
2023-05-14T22:14:25.497Z,14
2023-05-14T22:17:25.516Z,14
2023-05-14T22:20:25.492Z,13.9
2023-05-14T22:23:25.495Z,14
2023-05-14T22:26:25.494Z,14
2023-05-14T22:29:25.506Z,14
2023-05-14T22:32:25.532Z,14
2023-05-14T22:35:25.609Z,13.9
2023-05-14T22:38:25.490Z,13.9
2023-05-14T22:41:25.499Z,14
2023-05-14T22:44:26.333Z,13.9
2023-05-14T22:47:25.504Z,13.9
2023-05-14T22:50:25.502Z,13.9
2023-05-14T22:53:25.562Z,13.9
2023-05-14T22:56:25.500Z,13.9
2023-05-14T22:59:25.513Z,13.9
2023-05-14T23:02:25.547Z,13.9
2023-05-14T23:05:25.787Z,13.9
2023-05-14T23:08:25.512Z,13.9
2023-05-14T23:11:25.517Z,13.9
2023-05-14T23:14:25.523Z,13.9
2023-05-14T23:17:25.534Z,13.9
2023-05-14T23:20:25.521Z,13.9
2023-05-14T23:23:25.520Z,13.9
2023-05-14T23:26:25.531Z,13.9
2023-05-14T23:29:25.543Z,13.9
2023-05-14T23:32:25.546Z,13.9
2023-05-14T23:35:25.707Z,13.9
2023-05-14T23:38:25.527Z,13.9
2023-05-14T23:41:25.517Z,13.9
2023-05-14T23:44:25.543Z,13.9
2023-05-14T23:47:25.544Z,13.9
2023-05-14T23:50:25.519Z,13.9
2023-05-14T23:53:25.524Z,13.9
2023-05-14T23:56:25.527Z,13.9
2023-05-14T23:59:25.536Z,13.9
